Time;durP1;ratioP1;P1;durP2;ratioP2;P2;SDS_P1;SDS_P2;PMS_P1;PMS_P2;Temp;Humidity;BMP_temperature;BMP_pressure;BME280_temperature;BME280_humidity;BME280_pressure;Samples;Min_cycle;Max_cycle;Signal;HPM_P1;HPM_P2
2021/08/27 00:02:15;;;;;;;8.57;3.70;;;;;;;15.02;66.06;96447.16;5051816;28;20186;-69
2021/08/27 00:04:41;;;;;;;9.07;4.20;;;;;;;15.10;66.03;96441.72;5047450;28;20577;-69
2021/08/27 00:07:07;;;;;;;6.70;3.97;;;;;;;15.32;64.93;96442.34;5046119;28;20635;-68
2021/08/27 00:09:32;;;;;;;12.20;3.57;;;;;;;15.46;64.73;96437.09;5051021;28;20606;-69
2021/08/27 00:11:58;;;;;;;5.70;3.83;;;;;;;15.66;64.19;96439.72;5051251;28;20217;-69
2021/08/27 00:14:24;;;;;;;6.30;3.43;;;;;;;15.76;63.82;96437.50;5050974;28;20211;-70
2021/08/27 00:16:49;;;;;;;7.67;3.87;;;;;;;15.85;63.61;96434.69;5050674;28;20189;-70
2021/08/27 00:19:15;;;;;;;4.57;3.30;;;;;;;15.39;64.85;96426.50;5041419;28;20234;-69
2021/08/27 00:21:40;;;;;;;7.93;4.40;;;;;;;15.60;64.45;96435.28;5037847;28;20264;-69
2021/08/27 00:24:06;;;;;;;5.63;3.60;;;;;;;15.73;64.02;96427.34;5050114;28;20926;-69
2021/08/27 00:26:33;;;;;;;8.50;3.50;;;;;;;15.66;64.47;96434.44;5050800;28;20175;-69
2021/08/27 00:28:59;;;;;;;5.40;3.73;;;;;;;15.79;63.87;96431.81;5050604;28;20426;-70
2021/08/27 00:31:24;;;;;;;8.47;3.70;;;;;;;15.79;63.67;96434.44;5050583;28;20456;-69
2021/08/27 00:33:50;;;;;;;5.30;3.60;;;;;;;15.93;63.54;96431.81;5050338;28;20596;-70
2021/08/27 00:36:16;;;;;;;6.77;3.40;;;;;;;15.95;63.65;96432.44;5050770;28;20187;-69
2021/08/27 00:38:41;;;;;;;4.67;3.07;;;;;;;16.28;62.55;96440.31;5050803;28;20635;-69
2021/08/27 00:41:07;;;;;;;5.43;3.70;;;;;;;15.92;63.62;96435.47;5050862;28;20290;-69
2021/08/27 00:43:33;;;;;;;7.93;3.50;;;;;;;15.94;63.83;96436.91;5049384;28;20540;-69
2021/08/27 00:45:58;;;;;;;6.67;3.87;;;;;;;16.02;63.41;96435.88;5050797;28;20186;-69
2021/08/27 00:48:24;;;;;;;4.07;3.23;;;;;;;15.94;63.52;96430.81;5049577;28;20191;-69
2021/08/27 00:50:50;;;;;;;4.50;3.70;;;;;;;15.75;64.54;96440.34;5036497;28;20198;-69
2021/08/27 00:53:15;;;;;;;8.00;3.53;;;;;;;15.74;64.12;96430.78;5050308;28;20214;-69
2021/08/27 00:55:43;;;;;;;4.70;3.50;;;;;;;16.06;63.30;96442.38;5051374;28;20186;-70
2021/08/27 00:58:09;;;;;;;8.17;3.87;;;;;;;15.76;64.03;96439.34;5051645;28;20680;-68
2021/08/27 01:00:35;;;;;;;5.50;3.50;;;;;;;15.92;63.72;96440.78;5050811;28;20473;-70
2021/08/27 01:03:02;;;;;;;6.40;3.90;;;;;;;16.22;62.93;96440.31;5050811;28;20645;-69
2021/08/27 01:05:28;;;;;;;5.40;3.10;;;;;;;16.22;63.01;96441.13;5047911;28;20179;-70
2021/08/27 01:08:03;;;;;;;8.70;3.67;;;;;;;16.27;62.82;96443.16;5052009;28;20436;-69
2021/08/27 01:10:31;;;;;;;6.27;3.60;;;;;;;16.27;62.89;96443.16;5049526;28;20433;-70
2021/08/27 01:13:13;;;;;;;8.60;3.57;;;;;;;16.39;62.50;96438.03;5050851;28;20425;-70
2021/08/27 01:15:45;;;;;;;7.17;3.40;;;;;;;16.43;62.33;96439.25;5035406;28;20819;-69
2021/08/27 01:18:14;;;;;;;5.53;3.37;;;;;;;16.42;62.25;96435.00;5048200;28;20452;-70
2021/08/27 01:21:07;;;;;;;7.50;3.77;;;;;;;16.46;62.31;96430.09;5029130;28;20835;-69
2021/08/27 01:23:39;;;;;;;7.13;3.23;;;;;;;16.47;61.90;96432.53;5048215;28;20486;-69
2021/08/27 01:26:05;;;;;;;7.67;3.70;;;;;;;16.54;61.87;96433.31;5049451;28;20520;-68
2021/08/27 01:28:32;;;;;;;4.10;3.10;;;;;;;16.54;61.76;96438.63;5048084;28;20972;-69
2021/08/27 01:31:05;;;;;;;6.30;3.90;;;;;;;16.32;62.55;96439.91;5042007;28;20196;-69
2021/08/27 01:33:32;;;;;;;9.10;3.20;;;;;;;16.25;62.85;96434.63;5015891;28;20418;-69
2021/08/27 01:36:00;;;;;;;9.27;3.93;;;;;;;16.28;62.80;96440.31;5049148;28;20433;-70
2021/08/27 01:38:35;;;;;;;11.33;3.57;;;;;;;15.93;64.18;96445.03;5048624;28;20434;-70
2021/08/27 01:41:02;;;;;;;11.17;3.93;;;;;;;16.05;63.85;96439.97;5048066;28;21002;-69
2021/08/27 01:43:28;;;;;;;4.97;3.47;;;;;;;16.39;62.73;96440.69;5048398;28;20421;-68
2021/08/27 01:45:58;;;;;;;8.40;3.57;;;;;;;16.38;62.68;96439.84;5049884;28;20467;-70
2021/08/27 01:48:25;;;;;;;7.47;3.70;;;;;;;16.39;62.74;96441.50;5049047;28;20428;-70
2021/08/27 01:50:54;;;;;;;4.33;3.30;;;;;;;16.47;62.35;96435.16;5036038;28;20441;-70
2021/08/27 01:53:23;;;;;;;5.80;3.80;;;;;;;16.26;63.12;96442.34;5049592;28;20417;-68
2021/08/27 01:55:48;;;;;;;5.33;3.63;;;;;;;16.41;62.67;96433.38;5053138;28;20460;-69
2021/08/27 01:58:14;;;;;;;5.90;4.00;;;;;;;16.39;62.99;96430.13;5048525;28;20871;-69
2021/08/27 02:00:41;;;;;;;9.00;4.27;;;;;;;16.21;63.31;96436.06;5052702;28;20745;-68
2021/08/27 02:03:07;;;;;;;8.60;3.90;;;;;;;16.17;63.97;96430.38;5053746;28;20431;-69
2021/08/27 02:05:33;;;;;;;9.10;4.00;;;;;;;16.08;64.19;96437.72;5052822;28;20425;-69
2021/08/27 02:07:59;;;;;;;8.83;4.50;;;;;;;16.39;63.52;96441.50;5052293;28;20448;-68
2021/08/27 02:10:26;;;;;;;8.87;3.77;;;;;;;16.11;64.17;96445.22;5053897;28;20838;-70
2021/08/27 02:12:51;;;;;;;8.30;4.00;;;;;;;16.04;64.79;96441.78;5053282;28;20433;-70
2021/08/27 02:15:20;;;;;;;7.40;3.60;;;;;;;16.10;64.71;96437.50;5051302;28;20564;-69
2021/08/27 02:17:46;;;;;;;9.43;4.53;;;;;;;16.40;64.00;96443.13;5052337;28;20682;-68
2021/08/27 02:20:11;;;;;;;5.83;4.50;;;;;;;16.33;63.93;96430.94;5030396;28;20455;-69
2021/08/27 02:22:37;;;;;;;5.30;4.00;;;;;;;16.25;64.37;96439.94;5053561;28;20186;-69
2021/08/27 02:25:06;;;;;;;6.80;4.30;;;;;;;16.18;64.17;96444.41;5051161;28;20646;-70
2021/08/27 02:27:34;;;;;;;8.17;4.00;;;;;;;16.34;64.13;96445.78;5053932;28;20267;-69
2021/08/27 02:30:01;;;;;;;7.30;4.37;;;;;;;16.21;64.69;96447.44;5052727;28;20449;-70
2021/08/27 02:32:27;;;;;;;7.57;4.50;;;;;;;16.37;64.14;96443.56;5048840;28;20452;-70
2021/08/27 02:34:57;;;;;;;7.37;4.17;;;;;;;16.06;65.02;96441.59;5075607;28;20447;-69
2021/08/27 02:37:23;;;;;;;8.17;4.23;;;;;;;16.16;65.24;96441.13;5071674;28;20447;-69
2021/08/27 02:39:49;;;;;;;8.03;4.83;;;;;;;16.29;64.87;96446.41;5053541;28;20795;-69
2021/08/27 02:42:14;;;;;;;4.97;4.13;;;;;;;16.47;64.22;96444.94;5053751;28;20440;-69
2021/08/27 02:44:40;;;;;;;12.93;6.80;;;;;;;16.25;65.04;96448.66;5050165;28;20229;-68
2021/08/27 02:47:05;;;;;;;10.90;6.17;;;;;;;15.91;66.46;96444.44;5052868;28;20269;-69
2021/08/27 02:49:31;;;;;;;44.53;14.27;;;;;;;15.97;66.49;96446.25;5047253;28;20900;-68
2021/08/27 02:52:29;;;;;;;39.80;11.57;;;;;;;16.11;66.09;96439.94;5044116;28;20171;-69
2021/08/27 02:54:56;;;;;;;15.63;6.70;;;;;;;16.16;66.00;96446.44;5024351;28;20210;-69
2021/08/27 02:57:23;;;;;;;18.77;8.33;;;;;;;16.09;65.82;96441.16;5051524;28;20432;-69
2021/08/27 02:59:49;;;;;;;49.07;15.60;;;;;;;16.05;66.10;96440.75;5043151;28;20454;-69
2021/08/27 03:02:16;;;;;;;19.90;8.40;;;;;;;16.01;66.57;96447.47;5051580;28;20501;-68
2021/08/27 03:04:56;;;;;;;15.17;6.80;;;;;;;16.07;66.59;96449.28;5049997;28;20428;-68
2021/08/27 03:07:23;;;;;;;13.47;6.17;;;;;;;16.12;66.31;96446.88;5042784;28;20425;-69
2021/08/27 03:10:14;;;;;;;14.77;5.93;;;;;;;15.93;67.16;96447.69;5025473;28;20453;-69
2021/08/27 03:12:45;;;;;;;11.83;5.97;;;;;;;15.96;67.19;96447.28;5038846;28;20417;-69
2021/08/27 03:15:19;;;;;;;13.20;6.50;;;;;;;15.85;67.66;96445.25;5050290;28;20491;-69
2021/08/27 03:17:45;;;;;;;11.30;6.10;;;;;;;15.84;67.59;96443.59;5051126;28;20509;-69
2021/08/27 03:20:22;;;;;;;9.00;6.47;;;;;;;15.64;68.60;96434.66;5025454;28;20461;-69
2021/08/27 03:22:51;;;;;;;16.57;9.97;;;;;;;15.51;69.50;96434.66;5051517;28;20497;-68
2021/08/27 03:25:17;;;;;;;24.57;10.07;;;;;;;15.84;68.27;96438.31;5051466;28;20425;-69
2021/08/27 03:27:47;;;;;;;39.93;14.43;;;;;;;15.65;68.83;96441.56;5050219;28;20928;-69
2021/08/27 03:30:16;;;;;;;20.23;9.80;;;;;;;15.85;68.15;96440.78;5050390;28;20980;-69
2021/08/27 03:32:46;;;;;;;24.50;13.43;;;;;;;15.58;69.34;96439.94;5051959;28;20467;-68
2021/08/27 03:35:14;;;;;;;74.10;24.07;;;;;;;15.70;69.62;96443.59;5049754;28;20429;-68
2021/08/27 03:37:40;;;;;;;110.60;31.33;;;;;;;15.55;70.15;96440.34;5050365;28;20422;-69
2021/08/27 03:40:06;;;;;;;22.93;11.80;;;;;;;15.63;70.11;96442.78;5042762;28;20560;-69
2021/08/27 03:42:32;;;;;;;20.33;11.87;;;;;;;15.49;71.12;96442.81;5051263;28;20429;-68
2021/08/27 03:44:58;;;;;;;18.27;11.23;;;;;;;15.54;71.01;96442.19;5050320;28;20433;-69
2021/08/27 03:47:24;;;;;;;19.20;12.10;;;;;;;15.09;72.49;96452.47;5050878;28;20190;-69
2021/08/27 03:49:50;;;;;;;16.67;11.47;;;;;;;15.38;72.18;96445.22;5050718;28;20461;-68
2021/08/27 03:52:15;;;;;;;16.73;11.77;;;;;;;15.78;70.63;96448.66;5050446;28;20179;-69
2021/08/27 03:54:41;;;;;;;15.07;11.67;;;;;;;15.64;71.23;96439.13;5050039;28;20690;-69
2021/08/27 03:57:08;;;;;;;14.13;10.50;;;;;;;15.43;71.49;96442.78;5047906;28;20309;-69
2021/08/27 03:59:34;;;;;;;13.50;10.20;;;;;;;15.33;71.36;96440.53;5050518;28;20524;-70
2021/08/27 04:01:59;;;;;;;15.93;10.43;;;;;;;15.61;70.38;96439.56;5050459;28;21011;-68
2021/08/27 04:04:25;;;;;;;13.10;9.70;;;;;;;15.33;71.35;96440.53;5048928;28;20171;-69
2021/08/27 04:06:59;;;;;;;14.93;9.87;;;;;;;15.42;70.75;96441.97;5051816;28;20480;-69
2021/08/27 04:09:30;;;;;;;14.60;10.00;;;;;;;15.28;71.63;96443.78;5045052;28;20179;-69
2021/08/27 04:11:57;;;;;;;16.90;10.30;;;;;;;15.12;72.05;96450.22;5051740;28;20432;-69
2021/08/27 04:14:23;;;;;;;15.23;10.00;;;;;;;15.30;71.28;96448.84;5049890;28;20461;-69
2021/08/27 04:16:49;;;;;;;18.73;9.50;;;;;;;15.24;71.63;96452.31;5033183;28;20917;-69
2021/08/27 04:19:15;;;;;;;12.30;9.30;;;;;;;15.38;71.24;96453.13;5050683;28;20187;-70
2021/08/27 04:21:41;;;;;;;12.70;9.17;;;;;;;15.43;70.65;96454.16;5050290;28;20290;-69
2021/08/27 04:24:07;;;;;;;27.00;10.30;;;;;;;15.47;70.43;96459.84;5050493;28;20190;-68
2021/08/27 04:26:33;;;;;;;14.80;9.23;;;;;;;15.20;71.29;96465.06;5051621;28;20786;-69
2021/08/27 04:28:59;;;;;;;12.50;9.47;;;;;;;15.30;71.04;96465.50;5051306;28;20188;-69
2021/08/27 04:31:25;;;;;;;13.17;9.10;;;;;;;14.94;72.12;96473.72;5051216;28;20449;-69
2021/08/27 04:33:50;;;;;;;13.70;8.63;;;;;;;15.04;71.55;96471.53;5049705;28;20261;-69
2021/08/27 04:36:16;;;;;;;13.80;9.20;;;;;;;15.23;71.01;96461.22;5050859;28;20183;-69
2021/08/27 04:38:41;;;;;;;10.20;8.70;;;;;;;15.01;71.79;96471.91;5044184;28;20200;-69
2021/08/27 04:41:07;;;;;;;15.57;9.17;;;;;;;15.03;71.61;96476.00;5043712;28;20203;-69
2021/08/27 04:43:33;;;;;;;11.63;8.93;;;;;;;14.86;72.29;96472.06;5050339;28;20183;-68
2021/08/27 04:45:58;;;;;;;12.57;9.83;;;;;;;15.11;71.60;96482.94;5050801;28;20202;-69
2021/08/27 04:48:25;;;;;;;11.40;8.60;;;;;;;15.19;70.97;96474.81;5050990;28;20542;-69
2021/08/27 04:50:51;;;;;;;13.73;10.17;;;;;;;14.85;72.38;96473.09;5050958;28;20195;-68
2021/08/27 04:53:16;;;;;;;12.30;9.60;;;;;;;14.99;71.91;96479.25;5049266;28;20425;-68
2021/08/27 04:55:42;;;;;;;15.60;11.60;;;;;;;14.74;73.50;96483.19;5050608;28;20425;-68
2021/08/27 04:58:07;;;;;;;12.07;10.10;;;;;;;14.92;72.66;96484.50;5050760;28;20190;-69
2021/08/27 05:00:33;;;;;;;17.57;11.53;;;;;;;14.76;73.26;96483.00;5048068;28;20209;-68
2021/08/27 05:02:58;;;;;;;20.30;13.37;;;;;;;14.96;72.94;96484.91;5050766;28;20190;-68
2021/08/27 05:05:24;;;;;;;17.40;13.43;;;;;;;14.76;73.97;96477.72;5049532;28;20179;-68
2021/08/27 05:07:50;;;;;;;19.97;13.80;;;;;;;14.87;73.34;96482.41;5050283;28;20186;-68
2021/08/27 05:10:15;;;;;;;21.03;13.40;;;;;;;14.99;73.01;96487.16;5035671;28;20197;-68
2021/08/27 05:12:41;;;;;;;16.30;13.60;;;;;;;15.10;72.62;96497.13;5049858;28;20701;-69
2021/08/27 05:15:08;;;;;;;23.27;15.50;;;;;;;14.97;72.94;96491.81;5049190;28;20187;-71
2021/08/27 05:17:34;;;;;;;23.80;16.57;;;;;;;15.04;72.60;96497.91;5050392;28;20455;-68
2021/08/27 05:19:59;;;;;;;22.23;15.60;;;;;;;14.95;73.14;96499.91;5048509;28;20536;-67
2021/08/27 05:22:25;;;;;;;21.10;15.53;;;;;;;15.29;71.90;96503.47;5054676;28;20190;-68
2021/08/27 05:24:50;;;;;;;25.00;15.50;;;;;;;14.95;72.63;96497.25;5043640;28;20218;-69
2021/08/27 05:27:16;;;;;;;21.97;15.67;;;;;;;15.17;72.24;96505.88;5048672;28;20183;-70
2021/08/27 05:29:41;;;;;;;24.03;15.43;;;;;;;15.28;71.89;96511.59;5052868;28;20863;-68
2021/08/27 05:32:07;;;;;;;23.00;16.00;;;;;;;15.10;72.71;96512.13;5054403;28;20175;-68
2021/08/27 05:34:33;;;;;;;22.37;15.57;;;;;;;15.07;72.43;96513.34;5053627;28;20183;-68
2021/08/27 05:36:58;;;;;;;19.80;15.70;;;;;;;14.96;73.13;96513.94;5054335;28;20520;-69
2021/08/27 05:39:27;;;;;;;26.67;17.07;;;;;;;14.94;73.20;96523.84;5054809;28;20289;-69
2021/08/27 05:41:54;;;;;;;24.00;16.63;;;;;;;15.18;72.32;96517.25;5054743;28;20527;-69
2021/08/27 05:44:20;;;;;;;18.67;15.47;;;;;;;15.53;70.81;96511.84;5053845;28;20516;-69
2021/08/27 05:46:45;;;;;;;19.20;15.20;;;;;;;15.25;71.53;96528.63;5054514;28;20907;-69
2021/08/27 05:49:11;;;;;;;18.30;14.30;;;;;;;15.17;71.72;96529.63;5034206;28;20222;-69
2021/08/27 05:51:37;;;;;;;20.97;15.27;;;;;;;15.08;72.04;96538.72;5049548;28;20206;-69
2021/08/27 05:54:02;;;;;;;16.60;13.70;;;;;;;15.30;71.56;96538.59;5048236;28;20175;-69
2021/08/27 05:56:28;;;;;;;18.73;14.27;;;;;;;15.12;71.89;96545.22;5053846;28;20175;-68
2021/08/27 05:58:53;;;;;;;15.70;12.63;;;;;;;15.41;70.63;96540.66;5054250;28;20179;-68
2021/08/27 06:01:19;;;;;;;15.63;12.37;;;;;;;15.39;70.78;96545.31;5054275;28;20215;-69
2021/08/27 06:03:45;;;;;;;13.23;11.93;;;;;;;15.57;69.40;96550.03;5053447;28;20549;-68
2021/08/27 06:06:10;;;;;;;14.30;10.70;;;;;;;15.08;70.98;96545.81;5054034;28;20186;-69
2021/08/27 06:08:36;;;;;;;13.20;10.20;;;;;;;15.09;70.80;96550.91;5054103;28;20564;-68
2021/08/27 06:11:02;;;;;;;11.43;10.20;;;;;;;15.23;70.71;96550.97;5054011;28;20232;-69
2021/08/27 06:13:27;;;;;;;14.43;10.30;;;;;;;14.69;72.34;96553.38;5051813;28;20274;-68
2021/08/27 06:15:53;;;;;;;11.23;10.03;;;;;;;14.95;71.18;96554.50;5054351;28;20464;-70
2021/08/27 06:18:19;;;;;;;12.23;9.03;;;;;;;15.05;71.21;96550.50;5052543;28;20179;-72
2021/08/27 06:20:44;;;;;;;11.90;8.77;;;;;;;15.17;69.84;96550.75;5043951;28;20272;-69
2021/08/27 06:23:10;;;;;;;12.07;8.53;;;;;;;15.26;69.80;96561.13;5053844;28;20186;-70
2021/08/27 06:25:35;;;;;;;15.00;8.03;;;;;;;15.35;69.21;96559.94;5053555;28;20187;-69
2021/08/27 06:28:02;;;;;;;9.53;8.23;;;;;;;15.59;67.82;96558.56;5053924;28;20301;-70
2021/08/27 06:30:27;;;;;;;13.20;8.27;;;;;;;15.36;69.11;96553.66;5051348;28;20674;-69
2021/08/27 06:32:53;;;;;;;9.23;7.87;;;;;;;15.22;69.57;96552.78;5046005;28;20440;-69
2021/08/27 06:35:18;;;;;;;9.33;7.10;;;;;;;15.24;68.91;96556.03;5052698;28;20185;-69
2021/08/27 06:40:28;;;;;;;12.87;7.00;;;;;;;15.16;69.84;96559.66;5051519;28;20703;-69
2021/08/27 06:42:54;;;;;;;13.23;6.80;;;;;;;15.30;68.93;96567.63;5053588;28;20418;-68
2021/08/27 06:45:19;;;;;;;13.60;7.10;;;;;;;15.67;67.96;96570.78;5052285;28;20175;-69
2021/08/27 06:47:45;;;;;;;11.03;7.10;;;;;;;15.76;67.33;96566.13;5051119;28;20650;-70
2021/08/27 06:50:10;;;;;;;9.80;7.07;;;;;;;15.60;68.09;96570.75;5043282;28;20203;-70
2021/08/27 06:52:36;;;;;;;12.37;6.50;;;;;;;15.63;67.26;96564.25;5053461;28;20589;-68
2021/08/27 06:55:02;;;;;;;11.53;5.83;;;;;;;15.99;66.46;96560.50;5052323;28;20175;-69
2021/08/27 06:57:28;;;;;;;8.37;5.90;;;;;;;16.07;66.44;96564.75;5053289;28;20171;-70
2021/08/27 06:59:54;;;;;;;9.10;5.73;;;;;;;16.34;65.32;96570.03;5053079;28;20587;-68
2021/08/27 07:02:20;;;;;;;6.70;5.70;;;;;;;16.25;65.83;96564.19;5051689;28;20214;-68
2021/08/27 07:04:45;;;;;;;10.33;5.97;;;;;;;16.53;64.75;96568.41;5051460;28;20187;-69
2021/08/27 07:07:11;;;;;;;13.47;6.70;;;;;;;16.43;64.67;96566.19;5052751;28;20781;-70
2021/08/27 07:09:36;;;;;;;12.33;5.40;;;;;;;16.27;64.64;96565.59;5052771;28;20179;-68
2021/08/27 07:12:02;;;;;;;10.70;5.53;;;;;;;16.47;64.17;96563.94;5053292;28;20191;-69
2021/08/27 07:14:28;;;;;;;7.17;5.13;;;;;;;16.22;64.65;96569.84;5052198;28;20266;-70
2021/08/27 07:16:53;;;;;;;10.63;5.67;;;;;;;16.49;63.31;96557.41;5053365;28;20650;-69
2021/08/27 07:19:19;;;;;;;7.00;4.80;;;;;;;16.83;62.45;96562.66;5040162;28;20230;-70
2021/08/27 07:21:45;;;;;;;5.93;4.10;;;;;;;16.65;61.98;96564.09;5052778;28;20297;-69
2021/08/27 07:24:10;;;;;;;4.40;3.33;;;;;;;16.79;61.32;96559.63;5051486;28;20191;-71
2021/08/27 07:26:36;;;;;;;8.03;5.07;;;;;;;16.92;61.22;96565.88;5047365;28;20547;-67
2021/08/27 07:29:01;;;;;;;4.47;3.67;;;;;;;16.58;60.68;96568.59;5047980;28;20623;-68
2021/08/27 07:31:27;;;;;;;6.97;3.90;;;;;;;16.59;60.95;96576.31;5052891;28;20245;-70
2021/08/27 07:33:52;;;;;;;4.43;3.70;;;;;;;16.56;61.11;96578.56;5051833;28;20197;-69
2021/08/27 07:36:18;;;;;;;7.40;4.50;;;;;;;16.94;60.10;96583.22;5035524;28;20184;-69
2021/08/27 07:38:44;;;;;;;5.20;3.73;;;;;;;17.10;59.34;96578.47;5052165;28;20684;-69
2021/08/27 07:41:09;;;;;;;5.63;3.47;;;;;;;17.10;58.66;96573.19;5052148;28;20232;-69
2021/08/27 07:43:35;;;;;;;6.40;3.70;;;;;;;17.17;57.90;96574.78;5048125;28;20200;-68
2021/08/27 07:46:00;;;;;;;8.90;3.23;;;;;;;17.27;56.11;96578.81;5046812;28;20233;-69
2021/08/27 07:48:27;;;;;;;10.83;2.87;;;;;;;17.46;55.43;96566.50;5052448;28;20266;-68
2021/08/27 07:50:53;;;;;;;10.67;2.70;;;;;;;17.80;55.29;96575.06;5043710;28;20325;-67
2021/08/27 07:53:19;;;;;;;4.53;2.70;;;;;;;17.36;55.93;96577.56;5060938;28;20487;-70
2021/08/27 07:55:44;;;;;;;6.07;2.53;;;;;;;17.14;56.45;96584.97;5065955;28;20187;-70
2021/08/27 07:58:10;;;;;;;5.30;2.60;;;;;;;17.26;56.44;96585.97;5060573;28;20211;-69
2021/08/27 08:00:36;;;;;;;6.20;2.73;;;;;;;17.57;55.32;96583.59;5068771;28;20207;-69
2021/08/27 08:03:01;;;;;;;9.40;2.83;;;;;;;17.98;53.90;96590.28;5070857;28;20541;-69
2021/08/27 08:05:27;;;;;;;3.60;2.50;;;;;;;17.78;53.82;96593.00;5067213;28;20176;-69
2021/08/27 08:07:52;;;;;;;5.60;1.87;;;;;;;17.85;52.44;96590.31;5055802;28;20182;-68
2021/08/27 08:10:18;;;;;;;5.10;1.90;;;;;;;17.70;51.80;96593.28;5052241;28;20487;-69
2021/08/27 08:12:44;;;;;;;2.80;1.50;;;;;;;17.27;52.96;96592.84;5054848;28;20199;-69
2021/08/27 08:15:10;;;;;;;6.23;1.90;;;;;;;17.46;52.80;96590.34;5059884;28;20175;-69
2021/08/27 08:17:36;;;;;;;2.60;1.73;;;;;;;17.39;53.18;96594.88;5059906;28;20192;-68
2021/08/27 08:20:02;;;;;;;4.40;2.00;;;;;;;17.85;51.71;96593.81;5041093;28;20449;-69
2021/08/27 08:22:28;;;;;;;2.33;1.60;;;;;;;17.98;51.41;96590.28;5048906;28;20504;-70
2021/08/27 08:24:53;;;;;;;3.00;1.53;;;;;;;17.80;51.63;96593.63;5051469;28;20438;-69
2021/08/27 08:27:19;;;;;;;2.80;1.50;;;;;;;17.70;51.29;96596.75;5051337;28;20186;-69
2021/08/27 08:29:44;;;;;;;1.77;1.03;;;;;;;17.49;48.93;96598.69;5050129;28;20179;-68
2021/08/27 08:32:10;;;;;;;2.23;1.30;;;;;;;17.82;49.45;96596.88;5051229;28;20197;-68
2021/08/27 08:34:36;;;;;;;3.47;1.63;;;;;;;17.94;50.06;96600.47;5050816;28;20186;-69
2021/08/27 08:37:02;;;;;;;6.50;1.77;;;;;;;17.92;50.80;96599.06;5050598;28;20244;-69
2021/08/27 08:39:27;;;;;;;2.60;1.37;;;;;;;18.11;50.45;96605.28;5032140;28;20187;-69
2021/08/27 08:41:53;;;;;;;3.40;2.70;;;;;;;17.66;52.72;96600.84;5033520;28;20293;-69
2021/08/27 08:44:19;;;;;;;5.80;2.93;;;;;;;17.56;53.12;96608.44;5050897;28;20183;-69
2021/08/27 08:46:47;;;;;;;4.10;2.33;;;;;;;17.88;52.12;96608.47;5052284;28;20432;-70
2021/08/27 08:49:13;;;;;;;3.70;2.00;;;;;;;18.47;51.23;96598.47;5047322;28;20231;-68
2021/08/27 08:51:42;;;;;;;3.00;1.87;;;;;;;18.50;50.32;96613.13;5051218;28;20655;-67
2021/08/27 08:54:08;;;;;;;4.90;1.77;;;;;;;19.39;47.95;96607.56;5048947;28;20858;-69
2021/08/27 08:56:35;;;;;;;1.93;1.50;;;;;;;19.60;47.78;96608.13;5050846;28;20434;-69
2021/08/27 08:59:00;;;;;;;3.47;1.67;;;;;;;18.92;48.57;96593.97;5051437;28;20560;-70
2021/08/27 09:01:26;;;;;;;2.73;1.53;;;;;;;19.46;46.92;96597.66;5047807;28;20458;-69
2021/08/27 09:03:51;;;;;;;3.40;1.60;;;;;;;18.93;47.51;96600.88;5045319;28;20270;-68
2021/08/27 09:06:17;;;;;;;3.73;1.60;;;;;;;18.98;47.58;96604.53;5051443;28;20182;-68
2021/08/27 09:08:45;;;;;;;2.10;1.90;;;;;;;18.48;48.61;96605.41;5051927;28;20317;-69
2021/08/27 09:11:18;;;;;;;5.13;1.70;;;;;;;18.15;49.53;96611.75;5051002;28;20199;-70
2021/08/27 09:13:46;;;;;;;3.60;1.40;;;;;;;18.10;48.38;96604.47;5050304;28;20429;-69
2021/08/27 09:16:12;;;;;;;3.20;2.60;;;;;;;18.11;49.00;96615.91;5050933;28;20865;-70
2021/08/27 09:18:39;;;;;;;4.73;2.00;;;;;;;18.44;49.03;96612.16;5045971;28;20434;-69
2021/08/27 09:21:46;;;;;;;3.87;1.40;;;;;;;18.66;47.85;96607.28;5047959;28;20468;-68
2021/08/27 09:24:12;;;;;;;4.00;1.30;;;;;;;18.71;47.32;96609.28;5049790;28;20441;-69
2021/08/27 09:26:38;;;;;;;2.73;1.80;;;;;;;18.08;46.68;96611.00;5050780;28;20432;-67
2021/08/27 09:29:04;;;;;;;6.87;1.40;;;;;;;18.20;47.44;96619.09;5049112;28;20445;-67
2021/08/27 09:31:33;;;;;;;2.07;1.57;;;;;;;18.46;48.20;96611.97;5042560;28;20518;-69
2021/08/27 09:33:59;;;;;;;2.77;2.03;;;;;;;18.13;48.51;96621.81;5049423;28;20545;-69
2021/08/27 09:36:25;;;;;;;2.60;1.30;;;;;;;18.37;47.72;96616.72;5050065;28;20422;-69
2021/08/27 09:39:07;;;;;;;4.97;1.70;;;;;;;18.17;48.91;96620.31;5049813;28;20437;-69
2021/08/27 09:41:34;;;;;;;4.50;1.60;;;;;;;18.15;49.49;96626.88;5035340;28;20282;-69
2021/08/27 09:44:01;;;;;;;5.13;2.40;;;;;;;18.00;49.75;96624.53;5050284;28;20460;-69
2021/08/27 09:46:37;;;;;;;4.93;1.90;;;;;;;18.03;49.36;96624.09;5051261;28;20801;-70
2021/08/27 09:49:31;;;;;;;4.43;2.63;;;;;;;17.70;51.05;96631.19;5036783;28;20518;-69
2021/08/27 09:51:58;;;;;;;6.87;2.03;;;;;;;17.81;50.79;96627.88;5042030;28;20520;-70
2021/08/27 09:54:33;;;;;;;4.57;2.57;;;;;;;18.04;50.40;96626.53;5048963;28;20463;-70
2021/08/27 09:57:03;;;;;;;3.47;2.00;;;;;;;18.42;49.39;96623.00;5043699;28;20520;-69
2021/08/27 09:59:47;;;;;;;5.00;2.13;;;;;;;18.42;48.04;96615.03;5042980;28;20421;-69
2021/08/27 10:02:25;;;;;;;3.33;1.80;;;;;;;18.32;48.27;96621.84;5048982;28;20461;-70
2021/08/27 10:04:59;;;;;;;3.40;2.27;;;;;;;18.44;49.05;96617.47;5043979;28;20428;-68
2021/08/27 10:07:37;;;;;;;6.77;2.30;;;;;;;18.02;50.35;96628.59;5049144;28;20425;-69
2021/08/27 10:10:05;;;;;;;5.43;2.90;;;;;;;18.11;49.36;96629.94;5049445;28;20457;-70
2021/08/27 10:12:32;;;;;;;7.90;4.10;;;;;;;18.21;48.93;96631.34;5050730;28;20436;-68
2021/08/27 10:14:58;;;;;;;5.70;3.10;;;;;;;17.85;50.06;96630.09;5048795;28;20445;-70
2021/08/27 10:17:24;;;;;;;5.77;3.33;;;;;;;17.72;50.81;96631.78;5053044;28;20463;-70
2021/08/27 10:19:50;;;;;;;5.07;3.30;;;;;;;18.12;50.31;96625.47;5041676;28;20426;-69
2021/08/27 10:22:16;;;;;;;6.33;2.97;;;;;;;18.47;49.45;96625.00;5052103;28;20471;-69
2021/08/27 10:24:44;;;;;;;7.20;2.97;;;;;;;18.34;50.41;96625.09;5029202;28;20425;-69
2021/08/27 10:27:11;;;;;;;7.83;3.57;;;;;;;18.36;49.43;96623.84;5052962;28;20240;-69
2021/08/27 10:29:56;;;;;;;3.40;2.40;;;;;;;18.23;48.47;96624.78;5052424;28;20428;-70
2021/08/27 10:32:39;;;;;;;3.13;2.57;;;;;;;19.12;45.67;96613.19;5052881;28;20529;-69
2021/08/27 10:35:06;;;;;;;5.80;2.13;;;;;;;19.25;45.60;96617.53;5044799;28;20433;-70
2021/08/27 10:37:43;;;;;;;2.73;2.10;;;;;;;19.67;44.97;96614.16;5050247;28;20457;-68
2021/08/27 10:40:26;;;;;;;2.10;1.77;;;;;;;19.89;43.89;96619.00;5050427;28;20778;-71
2021/08/27 10:42:52;;;;;;;10.70;2.10;;;;;;;19.38;45.42;96616.56;5053201;28;20503;-71
2021/08/27 10:45:30;;;;;;;4.17;2.07;;;;;;;19.15;45.93;96615.38;5051660;28;20433;-70
2021/08/27 10:48:18;;;;;;;6.67;2.53;;;;;;;19.33;45.43;96617.25;5053385;28;20809;-69
2021/08/27 10:50:52;;;;;;;3.73;2.70;;;;;;;19.23;45.38;96610.81;5040667;28;20445;-69
2021/08/27 10:53:23;;;;;;;9.00;2.63;;;;;;;18.79;47.32;96610.84;5044312;28;20426;-68
2021/08/27 10:55:49;;;;;;;6.37;2.17;;;;;;;18.85;48.04;96621.41;5047159;28;20422;-68
2021/08/27 10:58:17;;;;;;;9.93;2.10;;;;;;;18.68;48.71;96615.84;5051298;28;20438;-69
2021/08/27 11:00:49;;;;;;;4.73;2.50;;;;;;;18.56;49.35;96618.38;5051536;28;20203;-69
2021/08/27 11:03:15;;;;;;;5.33;2.30;;;;;;;18.66;48.23;96620.56;5051694;28;20425;-69
2021/08/27 11:05:41;;;;;;;2.87;2.50;;;;;;;19.02;45.48;96613.69;5052804;28;20966;-69
2021/08/27 11:08:12;;;;;;;2.97;1.80;;;;;;;19.14;43.96;96621.75;5051248;28;20441;-69
2021/08/27 11:10:41;;;;;;;2.33;1.40;;;;;;;19.33;43.46;96611.94;5034791;28;20191;-68
2021/08/27 11:13:10;;;;;;;3.10;1.63;;;;;;;19.82;42.06;96612.94;5051462;28;20430;-68
2021/08/27 11:15:36;;;;;;;3.83;1.77;;;;;;;19.57;43.77;96605.91;5048018;28;20429;-69
2021/08/27 11:18:11;;;;;;;6.50;2.67;;;;;;;19.10;46.13;96617.91;5047909;28;20435;-70
2021/08/27 11:20:37;;;;;;;2.87;2.10;;;;;;;19.17;47.34;96618.63;5042002;28;20591;-68
2021/08/27 11:23:03;;;;;;;5.97;2.50;;;;;;;18.90;48.43;96611.97;5052621;28;20733;-70
2021/08/27 11:25:29;;;;;;;3.20;2.30;;;;;;;18.86;48.85;96623.03;5030570;28;20241;-68
2021/08/27 11:28:15;;;;;;;5.33;2.27;;;;;;;18.64;49.58;96619.97;5029230;28;20463;-68
2021/08/27 11:30:47;;;;;;;7.20;2.20;;;;;;;18.55;48.70;96622.06;5033728;28;20203;-69
2021/08/27 11:33:41;;;;;;;8.27;3.70;;;;;;;18.76;47.93;96624.53;5048327;28;20425;-68
2021/08/27 11:36:08;;;;;;;3.07;2.10;;;;;;;18.49;47.00;96625.59;5052316;28;20421;-69